sensor_id;sensor_type;location;lat;lon;timestamp;pressure;altitude;pressure_sealevel;temperature;humidity
56142;BME280;42018;48.588;10.836;2023-02-28T00:23:08;97392.66;;;-1.24;61.79
56142;BME280;42018;48.588;10.836;2023-02-28T00:29:46;97383.69;;;-1.21;62.20
56142;BME280;42018;48.588;10.836;2023-02-28T00:32:31;97385.31;;;-1.20;61.37
56142;BME280;42018;48.588;10.836;2023-02-28T00:35:24;97387.19;;;-1.14;61.22
56142;BME280;42018;48.588;10.836;2023-02-28T00:38:32;97383.59;;;-1.28;61.45
56142;BME280;42018;48.588;10.836;2023-02-28T00:41:17;97388.97;;;-1.29;61.63
56142;BME280;42018;48.588;10.836;2023-02-28T00:44:02;97387.13;;;-1.21;61.16
56142;BME280;42018;48.588;10.836;2023-02-28T00:49:56;97389.34;;;-1.17;61.03
56142;BME280;42018;48.588;10.836;2023-02-28T00:52:45;97384.88;;;-1.24;61.20
56142;BME280;42018;48.588;10.836;2023-02-28T00:55:30;97384.69;;;-1.22;60.99
56142;BME280;42018;48.588;10.836;2023-02-28T00:58:15;97383.53;;;-1.19;61.20
56142;BME280;42018;48.588;10.836;2023-02-28T01:01:01;97382.41;;;-1.25;61.01
56142;BME280;42018;48.588;10.836;2023-02-28T01:03:46;97383.34;;;-1.18;61.01
56142;BME280;42018;48.588;10.836;2023-02-28T01:06:31;97375.19;;;-1.15;60.51
56142;BME280;42018;48.588;10.836;2023-02-28T01:09:17;97377.41;;;-1.27;61.10
56142;BME280;42018;48.588;10.836;2023-02-28T01:12:02;97376.84;;;-1.37;61.53
56142;BME280;42018;48.588;10.836;2023-02-28T01:14:47;97371.44;;;-1.35;60.78
56142;BME280;42018;48.588;10.836;2023-02-28T01:17:33;97370.06;;;-1.23;61.05
56142;BME280;42018;48.588;10.836;2023-02-28T01:20:18;97372.84;;;-1.25;61.42
56142;BME280;42018;48.588;10.836;2023-02-28T01:23:03;97374.00;;;-1.27;61.06
56142;BME280;42018;48.588;10.836;2023-02-28T01:25:49;97364.13;;;-1.32;60.52
56142;BME280;42018;48.588;10.836;2023-02-28T01:28:34;97372.31;;;-1.43;61.12
56142;BME280;42018;48.588;10.836;2023-02-28T01:31:20;97374.34;;;-1.30;61.17
56142;BME280;42018;48.588;10.836;2023-02-28T01:34:06;97366.91;;;-1.33;61.07
56142;BME280;42018;48.588;10.836;2023-02-28T01:36:51;97363.59;;;-1.50;61.22
56142;BME280;42018;48.588;10.836;2023-02-28T01:39:36;97372.19;;;-1.50;61.21
56142;BME280;42018;48.588;10.836;2023-02-28T01:42:21;97370.19;;;-1.39;60.90
56142;BME280;42018;48.588;10.836;2023-02-28T01:48:05;97365.63;;;-1.37;61.09
56142;BME280;42018;48.588;10.836;2023-02-28T01:50:52;97360.09;;;-1.34;60.56
56142;BME280;42018;48.588;10.836;2023-02-28T01:53:42;97372.09;;;-1.33;60.85
56142;BME280;42018;48.588;10.836;2023-02-28T01:56:30;97368.81;;;-1.27;60.69
56142;BME280;42018;48.588;10.836;2023-02-28T01:59:22;97373.28;;;-1.21;60.25
56142;BME280;42018;48.588;10.836;2023-02-28T02:02:09;97362.69;;;-1.34;60.75
56142;BME280;42018;48.588;10.836;2023-02-28T02:04:55;97362.03;;;-1.36;60.62
56142;BME280;42018;48.588;10.836;2023-02-28T02:07:43;97356.31;;;-1.32;61.04
56142;BME280;42018;48.588;10.836;2023-02-28T02:10:34;97361.69;;;-1.33;60.82
56142;BME280;42018;48.588;10.836;2023-02-28T02:25:08;97345.47;;;-1.35;60.65
56142;BME280;42018;48.588;10.836;2023-02-28T02:27:59;97336.84;;;-1.36;60.70
56142;BME280;42018;48.588;10.836;2023-02-28T02:33:45;97331.63;;;-1.28;60.07
56142;BME280;42018;48.588;10.836;2023-02-28T02:36:47;97329.94;;;-1.43;60.45
56142;BME280;42018;48.588;10.836;2023-02-28T02:39:40;97339.34;;;-1.42;60.86
56142;BME280;42018;48.588;10.836;2023-02-28T02:45:23;97345.25;;;-1.49;60.59
56142;BME280;42018;48.588;10.836;2023-02-28T02:48:11;97330.94;;;-1.45;60.30
56142;BME280;42018;48.588;10.836;2023-02-28T02:50:59;97331.84;;;-1.37;60.36
56142;BME280;42018;48.588;10.836;2023-02-28T02:53:47;97327.19;;;-1.42;60.05
56142;BME280;42018;48.588;10.836;2023-02-28T02:56:34;97330.47;;;-1.48;60.51
56142;BME280;42018;48.588;10.836;2023-02-28T02:59:21;97330.41;;;-1.63;60.85
56142;BME280;42018;48.588;10.836;2023-02-28T03:02:09;97341.78;;;-1.64;60.81
56142;BME280;42018;48.588;10.836;2023-02-28T03:04:57;97340.28;;;-1.58;61.07
56142;BME280;42018;48.588;10.836;2023-02-28T03:07:45;97332.75;;;-1.53;60.73
56142;BME280;42018;48.588;10.836;2023-02-28T03:24:43;97343.94;;;-1.45;60.87
56142;BME280;42018;48.588;10.836;2023-02-28T03:30:42;97352.34;;;-1.42;60.83
56142;BME280;42018;48.588;10.836;2023-02-28T03:33:35;97348.44;;;-1.38;60.84
56142;BME280;42018;48.588;10.836;2023-02-28T03:36:25;97352.19;;;-1.41;60.73
56142;BME280;42018;48.588;10.836;2023-02-28T03:39:14;97348.34;;;-1.30;60.14
56142;BME280;42018;48.588;10.836;2023-02-28T03:42:01;97355.06;;;-1.36;60.59
56142;BME280;42018;48.588;10.836;2023-02-28T03:44:57;97353.66;;;-1.47;60.62
56142;BME280;42018;48.588;10.836;2023-02-28T03:47:49;97364.19;;;-1.40;60.47
56142;BME280;42018;48.588;10.836;2023-02-28T03:50:39;97359.56;;;-1.30;60.10
56142;BME280;42018;48.588;10.836;2023-02-28T03:53:35;97353.78;;;-1.40;60.62
56142;BME280;42018;48.588;10.836;2023-02-28T03:56:23;97362.03;;;-1.36;60.65
56142;BME280;42018;48.588;10.836;2023-02-28T03:59:18;97368.91;;;-1.43;61.62
56142;BME280;42018;48.588;10.836;2023-02-28T04:02:06;97360.72;;;-1.32;61.12
56142;BME280;42018;48.588;10.836;2023-02-28T04:04:52;97370.75;;;-1.29;60.94
56142;BME280;42018;48.588;10.836;2023-02-28T04:07:37;97375.19;;;-1.15;60.93
56142;BME280;42018;48.588;10.836;2023-02-28T04:10:22;97374.47;;;-1.24;60.45
56142;BME280;42018;48.588;10.836;2023-02-28T04:13:08;97386.00;;;-1.26;60.89
56142;BME280;42018;48.588;10.836;2023-02-28T04:15:53;97384.88;;;-1.24;60.76
56142;BME280;42018;48.588;10.836;2023-02-28T04:18:39;97388.28;;;-1.23;60.88
56142;BME280;42018;48.588;10.836;2023-02-28T04:21:24;97381.16;;;-1.29;60.87
56142;BME280;42018;48.588;10.836;2023-02-28T04:24:11;97385.38;;;-1.28;61.08
56142;BME280;42018;48.588;10.836;2023-02-28T04:26:59;97382.38;;;-1.17;61.22
56142;BME280;42018;48.588;10.836;2023-02-28T04:29:44;97388.63;;;-1.26;61.29
56142;BME280;42018;48.588;10.836;2023-02-28T04:32:29;97387.88;;;-1.35;61.65
56142;BME280;42018;48.588;10.836;2023-02-28T04:35:15;97390.28;;;-1.33;61.36
56142;BME280;42018;48.588;10.836;2023-02-28T04:38:00;97383.59;;;-1.51;61.44
56142;BME280;42018;48.588;10.836;2023-02-28T04:40:46;97387.75;;;-1.41;61.70
56142;BME280;42018;48.588;10.836;2023-02-28T04:43:31;97387.16;;;-1.29;61.92
56142;BME280;42018;48.588;10.836;2023-02-28T04:46:16;97392.81;;;-1.25;61.78
56142;BME280;42018;48.588;10.836;2023-02-28T04:49:03;97386.00;;;-1.26;62.11
56142;BME280;42018;48.588;10.836;2023-02-28T04:51:48;97389.81;;;-1.14;61.20
56142;BME280;42018;48.588;10.836;2023-02-28T04:54:37;97388.09;;;-1.22;61.69
56142;BME280;42018;48.588;10.836;2023-02-28T04:57:29;97387.75;;;-1.18;61.69
56142;BME280;42018;48.588;10.836;2023-02-28T05:00:15;97389.81;;;-1.14;61.22
56142;BME280;42018;48.588;10.836;2023-02-28T05:03:01;97384.59;;;-1.14;61.69
56142;BME280;42018;48.588;10.836;2023-02-28T05:05:47;97389.25;;;-1.24;61.68
56142;BME280;42018;48.588;10.836;2023-02-28T05:08:32;97385.03;;;-1.25;62.14
56142;BME280;42018;48.588;10.836;2023-02-28T05:14:12;97391.47;;;-1.21;62.30
56142;BME280;42018;48.588;10.836;2023-02-28T05:16:58;97393.81;;;-1.26;62.37
56142;BME280;42018;48.588;10.836;2023-02-28T05:19:43;97399.00;;;-1.26;62.40
56142;BME280;42018;48.588;10.836;2023-02-28T05:22:28;97397.63;;;-1.37;62.49
56142;BME280;42018;48.588;10.836;2023-02-28T05:25:16;97398.75;;;-1.31;62.27
56142;BME280;42018;48.588;10.836;2023-02-28T05:28:01;97401.44;;;-1.48;62.41
56142;BME280;42018;48.588;10.836;2023-02-28T05:30:46;97398.03;;;-1.48;62.94
56142;BME280;42018;48.588;10.836;2023-02-28T05:33:32;97398.28;;;-1.35;62.76
56142;BME280;42018;48.588;10.836;2023-02-28T05:36:17;97398.31;;;-1.43;63.01
56142;BME280;42018;48.588;10.836;2023-02-28T05:39:03;97399.97;;;-1.50;63.02
56142;BME280;42018;48.588;10.836;2023-02-28T05:41:49;97406.91;;;-1.65;63.15
56142;BME280;42018;48.588;10.836;2023-02-28T05:44:35;97402.09;;;-1.77;63.64
56142;BME280;42018;48.588;10.836;2023-02-28T05:47:21;97391.53;;;-1.75;63.65
56142;BME280;42018;48.588;10.836;2023-02-28T05:50:06;97394.94;;;-1.75;63.57
56142;BME280;42018;48.588;10.836;2023-02-28T05:52:51;97394.47;;;-1.78;64.01
56142;BME280;42018;48.588;10.836;2023-02-28T05:55:37;97386.84;;;-1.80;64.02
56142;BME280;42018;48.588;10.836;2023-02-28T05:58:23;97391.63;;;-1.91;64.42
56142;BME280;42018;48.588;10.836;2023-02-28T06:04:14;97392.97;;;-2.04;64.74
56142;BME280;42018;48.588;10.836;2023-02-28T06:07:02;97396.19;;;-1.94;64.75
56142;BME280;42018;48.588;10.836;2023-02-28T06:09:48;97397.63;;;-1.91;64.98
56142;BME280;42018;48.588;10.836;2023-02-28T06:12:33;97407.16;;;-1.83;64.38
56142;BME280;42018;48.588;10.836;2023-02-28T06:15:18;97409.44;;;-1.80;64.15
56142;BME280;42018;48.588;10.836;2023-02-28T06:18:06;97412.19;;;-1.82;64.46
56142;BME280;42018;48.588;10.836;2023-02-28T06:20:52;97412.19;;;-1.82;64.50
56142;BME280;42018;48.588;10.836;2023-02-28T06:23:39;97416.09;;;-1.86;64.20
56142;BME280;42018;48.588;10.836;2023-02-28T06:26:25;97426.94;;;-1.74;64.36
56142;BME280;42018;48.588;10.836;2023-02-28T06:29:10;97426.88;;;-1.66;64.28
56142;BME280;42018;48.588;10.836;2023-02-28T06:31:55;97436.84;;;-1.78;64.06
56142;BME280;42018;48.588;10.836;2023-02-28T06:34:41;97439.66;;;-1.87;64.50
56142;BME280;42018;48.588;10.836;2023-02-28T06:37:35;97439.88;;;-2.05;64.94
56142;BME280;42018;48.588;10.836;2023-02-28T06:43:31;97442.63;;;-1.99;64.84
56142;BME280;42018;48.588;10.836;2023-02-28T06:49:29;97451.50;;;-1.93;64.80
56142;BME280;42018;48.588;10.836;2023-02-28T06:52:27;97458.25;;;-1.76;64.74
56142;BME280;42018;48.588;10.836;2023-02-28T06:55:25;97461.84;;;-1.77;64.91
56142;BME280;42018;48.588;10.836;2023-02-28T07:01:16;97472.31;;;-1.62;64.06
56142;BME280;42018;48.588;10.836;2023-02-28T07:07:28;97474.78;;;-1.69;64.06
56142;BME280;42018;48.588;10.836;2023-02-28T07:13:59;97472.31;;;-1.62;64.39
56142;BME280;42018;48.588;10.836;2023-02-28T07:16:44;97465.72;;;-1.41;63.63
56142;BME280;42018;48.588;10.836;2023-02-28T07:19:30;97472.06;;;-1.21;63.77
56142;BME280;42018;48.588;10.836;2023-02-28T07:25:41;97471.47;;;-1.23;63.26
56142;BME280;42018;48.588;10.836;2023-02-28T07:28:44;97474.69;;;-1.21;62.96
56142;BME280;42018;48.588;10.836;2023-02-28T07:31:30;97467.75;;;-1.29;63.72
56142;BME280;42018;48.588;10.836;2023-02-28T07:34:27;97464.25;;;-1.13;63.38
56142;BME280;42018;48.588;10.836;2023-02-28T07:37:13;97462.50;;;-0.98;62.75
56142;BME280;42018;48.588;10.836;2023-02-28T07:46:51;97462.84;;;-1.01;62.68
56142;BME280;42018;48.588;10.836;2023-02-28T08:16:57;97480.53;;;-0.73;61.37
56142;BME280;42018;48.588;10.836;2023-02-28T08:23:17;97486.09;;;-0.61;60.86
56142;BME280;42018;48.588;10.836;2023-02-28T08:26:03;97484.19;;;-0.44;61.30
56142;BME280;42018;48.588;10.836;2023-02-28T08:29:16;97478.06;;;-0.52;60.28
56142;BME280;42018;48.588;10.836;2023-02-28T08:32:01;97479.50;;;-0.49;60.51
56142;BME280;42018;48.588;10.836;2023-02-28T08:34:46;97479.41;;;-0.56;60.24
56142;BME280;42018;48.588;10.836;2023-02-28T08:37:32;97476.94;;;-0.34;60.47
56142;BME280;42018;48.588;10.836;2023-02-28T08:40:17;97478.09;;;-0.22;60.27
56142;BME280;42018;48.588;10.836;2023-02-28T08:43:05;97473.88;;;-0.23;59.62
56142;BME280;42018;48.588;10.836;2023-02-28T08:45:51;97480.19;;;-0.03;59.44
56142;BME280;42018;48.588;10.836;2023-02-28T08:48:36;97469.56;;;0.29;58.32
56142;BME280;42018;48.588;10.836;2023-02-28T08:51:24;97472.78;;;0.31;59.12
56142;BME280;42018;48.588;10.836;2023-02-28T08:54:13;97475.66;;;0.36;57.33
56142;BME280;42018;48.588;10.836;2023-02-28T08:56:59;97476.25;;;0.53;57.15
56142;BME280;42018;48.588;10.836;2023-02-28T08:59:44;97470.91;;;0.76;56.77
56142;BME280;42018;48.588;10.836;2023-02-28T09:02:30;97474.00;;;0.50;57.21
56142;BME280;42018;48.588;10.836;2023-02-28T09:05:16;97479.94;;;0.58;57.31
56142;BME280;42018;48.588;10.836;2023-02-28T09:08:01;97482.66;;;0.50;57.15
56142;BME280;42018;48.588;10.836;2023-02-28T09:10:46;97482.56;;;0.43;57.63
56142;BME280;42018;48.588;10.836;2023-02-28T09:13:32;97483.22;;;0.67;57.21
56142;BME280;42018;48.588;10.836;2023-02-28T09:16:19;97490.28;;;0.88;56.47
56142;BME280;42018;48.588;10.836;2023-02-28T09:19:04;97478.81;;;1.04;56.33
56142;BME280;42018;48.588;10.836;2023-02-28T09:21:49;97489.34;;;0.95;55.23
56142;BME280;42018;48.588;10.836;2023-02-28T09:24:35;97487.59;;;0.81;55.73
56142;BME280;42018;48.588;10.836;2023-02-28T09:27:20;97485.47;;;0.70;56.36
56142;BME280;42018;48.588;10.836;2023-02-28T09:30:06;97489.75;;;1.14;55.85
56142;BME280;42018;48.588;10.836;2023-02-28T09:32:51;97486.34;;;1.41;55.07
56142;BME280;42018;48.588;10.836;2023-02-28T09:35:38;97482.94;;;1.69;54.11
56142;BME280;42018;48.588;10.836;2023-02-28T09:38:23;97476.81;;;1.83;53.63
56142;BME280;42018;48.588;10.836;2023-02-28T09:41:16;97477.88;;;1.96;52.71
56142;BME280;42018;48.588;10.836;2023-02-28T09:44:02;97483.16;;;2.02;53.81
56142;BME280;42018;48.588;10.836;2023-02-28T09:46:50;97477.78;;;1.76;52.22
56142;BME280;42018;48.588;10.836;2023-02-28T09:49:42;97487.84;;;1.51;53.19
56142;BME280;42018;48.588;10.836;2023-02-28T09:52:29;97487.06;;;1.78;53.92
56142;BME280;42018;48.588;10.836;2023-02-28T09:58:03;97495.97;;;1.90;53.29
56142;BME280;42018;48.588;10.836;2023-02-28T10:00:52;97502.84;;;1.98;53.59
56142;BME280;42018;48.588;10.836;2023-02-28T10:03:43;97494.84;;;2.06;52.86
56142;BME280;42018;48.588;10.836;2023-02-28T10:06:33;97500.81;;;2.28;52.70
56142;BME280;42018;48.588;10.836;2023-02-28T10:09:22;97504.72;;;2.46;52.34
56142;BME280;42018;48.588;10.836;2023-02-28T10:12:09;97498.94;;;2.57;50.78
56142;BME280;42018;48.588;10.836;2023-02-28T10:14:55;97509.78;;;2.54;51.42
56142;BME280;42018;48.588;10.836;2023-02-28T10:17:42;97516.34;;;2.36;51.91
56142;BME280;42018;48.588;10.836;2023-02-28T10:20:28;97504.75;;;2.59;51.34
56142;BME280;42018;48.588;10.836;2023-02-28T10:23:26;97510.28;;;2.91;51.42
56142;BME280;42018;48.588;10.836;2023-02-28T10:26:13;97507.69;;;2.91;51.04
56142;BME280;42018;48.588;10.836;2023-02-28T10:29:01;97510.94;;;2.99;51.12
56142;BME280;42018;48.588;10.836;2023-02-28T10:31:47;97511.34;;;2.96;50.17
56142;BME280;42018;48.588;10.836;2023-02-28T10:34:33;97510.47;;;2.82;50.41
56142;BME280;42018;48.588;10.836;2023-02-28T10:37:18;97508.59;;;2.63;50.85
56142;BME280;42018;48.588;10.836;2023-02-28T10:40:05;97509.88;;;2.80;50.95
56142;BME280;42018;48.588;10.836;2023-02-28T10:46:09;97510.53;;;3.09;49.81
56142;BME280;42018;48.588;10.836;2023-02-28T10:49:02;97509.75;;;3.08;49.92
56142;BME280;42018;48.588;10.836;2023-02-28T10:51:52;97513.81;;;3.24;50.01
56142;BME280;42018;48.588;10.836;2023-02-28T10:54:38;97508.56;;;3.18;48.31
56142;BME280;42018;48.588;10.836;2023-02-28T10:57:24;97515.63;;;3.24;48.93
56142;BME280;42018;48.588;10.836;2023-02-28T11:00:23;97510.97;;;3.26;49.09
56142;BME280;42018;48.588;10.836;2023-02-28T11:03:23;97503.72;;;3.41;48.54
56142;BME280;42018;48.588;10.836;2023-02-28T11:06:13;97509.41;;;3.65;48.18
56142;BME280;42018;48.588;10.836;2023-02-28T11:09:03;97497.50;;;3.55;47.92
56142;BME280;42018;48.588;10.836;2023-02-28T11:11:49;97502.75;;;3.35;48.05
56142;BME280;42018;48.588;10.836;2023-02-28T11:14:36;97503.31;;;3.38;48.16
56142;BME280;42018;48.588;10.836;2023-02-28T11:17:29;97500.69;;;3.11;48.01
56142;BME280;42018;48.588;10.836;2023-02-28T11:20:18;97496.28;;;3.31;48.81
56142;BME280;42018;48.588;10.836;2023-02-28T11:23:05;97498.50;;;3.41;48.58
56142;BME280;42018;48.588;10.836;2023-02-28T11:25:59;97494.03;;;3.95;48.76
56142;BME280;42018;48.588;10.836;2023-02-28T11:28:45;97495.06;;;3.94;48.23
56142;BME280;42018;48.588;10.836;2023-02-28T11:31:30;97489.56;;;4.22;47.80
56142;BME280;42018;48.588;10.836;2023-02-28T11:34:22;97482.22;;;4.37;46.49
56142;BME280;42018;48.588;10.836;2023-02-28T11:37:15;97481.16;;;4.58;47.47
56142;BME280;42018;48.588;10.836;2023-02-28T11:40:01;97481.56;;;4.55;45.48
56142;BME280;42018;48.588;10.836;2023-02-28T11:43:03;97476.53;;;4.53;47.32
56142;BME280;42018;48.588;10.836;2023-02-28T11:48:45;97477.16;;;4.55;45.89
56142;BME280;42018;48.588;10.836;2023-02-28T11:54:44;97488.31;;;4.83;45.93
56142;BME280;42018;48.588;10.836;2023-02-28T12:30:08;97456.94;;;5.51;44.95
56142;BME280;42018;48.588;10.836;2023-02-28T12:33:03;97450.06;;;5.75;43.40
56142;BME280;42018;48.588;10.836;2023-02-28T12:35:51;97448.66;;;5.22;44.73
56142;BME280;42018;48.588;10.836;2023-02-28T12:38:50;97454.75;;;5.48;44.54
56142;BME280;42018;48.588;10.836;2023-02-28T12:41:41;97461.31;;;5.07;44.43
56142;BME280;42018;48.588;10.836;2023-02-28T12:44:32;97450.13;;;5.18;45.08
56142;BME280;42018;48.588;10.836;2023-02-28T12:50:53;97451.84;;;5.56;44.46
56142;BME280;42018;48.588;10.836;2023-02-28T13:10:06;97443.84;;;5.69;43.65
56142;BME280;42018;48.588;10.836;2023-02-28T13:12:53;97446.59;;;5.56;43.03
56142;BME280;42018;48.588;10.836;2023-02-28T13:22:51;97444.53;;;5.58;43.85
56142;BME280;42018;48.588;10.836;2023-02-28T13:35:37;97430.47;;;6.14;43.33
56142;BME280;42018;48.588;10.836;2023-02-28T13:41:41;97432.00;;;5.60;43.65
56142;BME280;42018;48.588;10.836;2023-02-28T13:48:02;97429.00;;;5.57;43.72
56142;BME280;42018;48.588;10.836;2023-02-28T13:50:54;97425.72;;;5.80;43.80
56142;BME280;42018;48.588;10.836;2023-02-28T14:10:30;97427.72;;;5.84;43.85
56142;BME280;42018;48.588;10.836;2023-02-28T14:23:56;97437.81;;;5.87;43.72
56142;BME280;42018;48.588;10.836;2023-02-28T14:43:03;97429.91;;;5.44;44.49
56142;BME280;42018;48.588;10.836;2023-02-28T14:45:50;97425.09;;;5.41;44.04
56142;BME280;42018;48.588;10.836;2023-02-28T14:48:36;97433.97;;;5.40;44.81
56142;BME280;42018;48.588;10.836;2023-02-28T14:58:29;97435.16;;;5.19;44.69
56142;BME280;42018;48.588;10.836;2023-02-28T15:01:18;97433.16;;;5.14;44.97
56142;BME280;42018;48.588;10.836;2023-02-28T15:55:42;97450.25;;;4.67;46.89
56142;BME280;42018;48.588;10.836;2023-02-28T15:58:28;97448.28;;;4.55;46.93
56142;BME280;42018;48.588;10.836;2023-02-28T17:10:38;97501.31;;;3.33;50.58
56142;BME280;42018;48.588;10.836;2023-02-28T17:13:23;97497.09;;;3.32;50.37
56142;BME280;42018;48.588;10.836;2023-02-28T17:16:13;97507.16;;;3.28;50.85
56142;BME280;42018;48.588;10.836;2023-02-28T17:19:00;97511.59;;;3.28;50.65
56142;BME280;42018;48.588;10.836;2023-02-28T17:21:45;97521.03;;;3.22;50.89
56142;BME280;42018;48.588;10.836;2023-02-28T17:24:31;97518.63;;;3.14;51.35
56142;BME280;42018;48.588;10.836;2023-02-28T17:27:16;97518.59;;;3.07;51.84
56142;BME280;42018;48.588;10.836;2023-02-28T17:30:02;97523.84;;;3.14;51.34
56142;BME280;42018;48.588;10.836;2023-02-28T17:32:48;97523.22;;;3.05;52.17
56142;BME280;42018;48.588;10.836;2023-02-28T17:35:33;97530.28;;;3.05;51.57
56142;BME280;42018;48.588;10.836;2023-02-28T17:38:19;97529.88;;;3.08;51.89
56142;BME280;42018;48.588;10.836;2023-02-28T17:41:04;97533.88;;;2.97;51.97
56142;BME280;42018;48.588;10.836;2023-02-28T17:43:49;97540.16;;;3.03;52.32
56142;BME280;42018;48.588;10.836;2023-02-28T17:46:35;97534.09;;;2.96;52.45
56142;BME280;42018;48.588;10.836;2023-02-28T17:49:21;97541.72;;;2.97;51.99
56142;BME280;42018;48.588;10.836;2023-02-28T17:52:07;97532.03;;;2.91;52.21
56142;BME280;42018;48.588;10.836;2023-02-28T17:54:52;97541.34;;;3.00;52.26
56142;BME280;42018;48.588;10.836;2023-02-28T17:57:37;97540.31;;;3.01;52.39
56142;BME280;42018;48.588;10.836;2023-02-28T18:00:23;97545.53;;;2.95;52.80
56142;BME280;42018;48.588;10.836;2023-02-28T18:03:08;97545.72;;;2.86;53.21
56142;BME280;42018;48.588;10.836;2023-02-28T18:05:54;97546.72;;;2.85;53.70
56142;BME280;42018;48.588;10.836;2023-02-28T18:08:41;97543.31;;;2.85;53.31
56142;BME280;42018;48.588;10.836;2023-02-28T18:11:27;97541.50;;;2.85;53.52
56142;BME280;42018;48.588;10.836;2023-02-28T18:14:26;97548.09;;;2.75;54.15
56142;BME280;42018;48.588;10.836;2023-02-28T18:17:11;97551.47;;;2.62;54.82
56142;BME280;42018;48.588;10.836;2023-02-28T18:19:57;97545.38;;;2.55;54.92
56142;BME280;42018;48.588;10.836;2023-02-28T18:22:43;97539.75;;;2.51;55.63
56142;BME280;42018;48.588;10.836;2023-02-28T18:25:28;97539.78;;;2.58;55.01
56142;BME280;42018;48.588;10.836;2023-02-28T18:28:14;97534.75;;;2.56;55.02
56142;BME280;42018;48.588;10.836;2023-02-28T18:31:18;97534.88;;;2.48;55.35
56142;BME280;42018;48.588;10.836;2023-02-28T18:34:04;97536.53;;;2.49;55.55
56142;BME280;42018;48.588;10.836;2023-02-28T18:36:50;97536.16;;;2.59;55.07
56142;BME280;42018;48.588;10.836;2023-02-28T18:39:36;97536.53;;;2.49;55.18
56142;BME280;42018;48.588;10.836;2023-02-28T18:42:21;97530.63;;;2.40;55.66
56142;BME280;42018;48.588;10.836;2023-02-28T18:45:06;97537.28;;;2.43;55.26
56142;BME280;42018;48.588;10.836;2023-02-28T18:47:52;97529.81;;;2.40;55.94
56142;BME280;42018;48.588;10.836;2023-02-28T18:50:37;97537.88;;;2.38;55.63
56142;BME280;42018;48.588;10.836;2023-02-28T18:53:23;97535.69;;;2.42;55.56
56142;BME280;42018;48.588;10.836;2023-02-28T18:56:09;97528.44;;;2.44;54.64
56142;BME280;42018;48.588;10.836;2023-02-28T18:58:55;97528.84;;;2.48;54.70
56142;BME280;42018;48.588;10.836;2023-02-28T19:01:40;97530.59;;;2.34;55.49
56142;BME280;42018;48.588;10.836;2023-02-28T19:04:30;97531.19;;;2.29;55.95
56142;BME280;42018;48.588;10.836;2023-02-28T19:07:16;97532.53;;;2.19;55.93
56142;BME280;42018;48.588;10.836;2023-02-28T19:10:01;97529.88;;;2.12;56.55
56142;BME280;42018;48.588;10.836;2023-02-28T19:12:46;97531.09;;;2.16;56.50
56142;BME280;42018;48.588;10.836;2023-02-28T19:15:32;97530.53;;;2.21;55.76
56142;BME280;42018;48.588;10.836;2023-02-28T19:18:17;97533.56;;;2.24;55.70
56142;BME280;42018;48.588;10.836;2023-02-28T19:21:03;97530.91;;;2.18;55.49
56142;BME280;42018;48.588;10.836;2023-02-28T19:23:50;97534.19;;;2.26;55.54
56142;BME280;42018;48.588;10.836;2023-02-28T19:26:35;97527.94;;;2.27;55.67
56142;BME280;42018;48.588;10.836;2023-02-28T19:29:21;97531.47;;;2.13;55.89
56142;BME280;42018;48.588;10.836;2023-02-28T19:32:06;97536.16;;;2.18;55.32
56142;BME280;42018;48.588;10.836;2023-02-28T19:34:52;97528.72;;;2.21;55.43
56142;BME280;42018;48.588;10.836;2023-02-28T19:37:37;97531.88;;;2.10;56.04
56142;BME280;42018;48.588;10.836;2023-02-28T19:40:23;97529.41;;;2.02;55.62
56142;BME280;42018;48.588;10.836;2023-02-28T19:43:08;97526.34;;;1.98;55.94
56142;BME280;42018;48.588;10.836;2023-02-28T19:45:54;97522.31;;;1.96;55.42
56142;BME280;42018;48.588;10.836;2023-02-28T19:48:39;97526.56;;;1.97;55.48
56142;BME280;42018;48.588;10.836;2023-02-28T19:51:26;97530.69;;;1.84;56.42
56142;BME280;42018;48.588;10.836;2023-02-28T19:54:12;97528.41;;;1.75;57.18
56142;BME280;42018;48.588;10.836;2023-02-28T19:56:57;97534.81;;;1.72;56.94
56142;BME280;42018;48.588;10.836;2023-02-28T19:59:43;97532.78;;;1.67;57.50
56142;BME280;42018;48.588;10.836;2023-02-28T20:02:28;97531.16;;;1.66;57.66
56142;BME280;42018;48.588;10.836;2023-02-28T20:05:13;97529.59;;;1.72;57.45
56142;BME280;42018;48.588;10.836;2023-02-28T20:07:58;97532.38;;;1.71;57.42
56142;BME280;42018;48.588;10.836;2023-02-28T20:10:44;97529.41;;;1.74;57.54
56142;BME280;42018;48.588;10.836;2023-02-28T20:13:29;97539.03;;;1.73;57.25
56142;BME280;42018;48.588;10.836;2023-02-28T20:16:14;97536.00;;;1.70;57.46
56142;BME280;42018;48.588;10.836;2023-02-28T20:19:00;97538.19;;;1.66;57.49
56142;BME280;42018;48.588;10.836;2023-02-28T20:21:45;97532.97;;;1.66;58.04
56142;BME280;42018;48.588;10.836;2023-02-28T20:24:31;97534.47;;;1.54;58.01
56142;BME280;42018;48.588;10.836;2023-02-28T20:27:16;97530.28;;;1.59;58.22
56142;BME280;42018;48.588;10.836;2023-02-28T20:30:02;97533.25;;;1.50;58.56
56142;BME280;42018;48.588;10.836;2023-02-28T20:32:47;97532.19;;;1.44;59.39
56142;BME280;42018;48.588;10.836;2023-02-28T20:35:33;97528.94;;;1.42;58.71
56142;BME280;42018;48.588;10.836;2023-02-28T20:38:19;97533.78;;;1.45;58.80
56142;BME280;42018;48.588;10.836;2023-02-28T20:41:05;97536.72;;;1.57;58.60
56142;BME280;42018;48.588;10.836;2023-02-28T20:43:54;97534.78;;;1.44;58.99
56142;BME280;42018;48.588;10.836;2023-02-28T20:46:42;97528.69;;;1.58;58.54
56142;BME280;42018;48.588;10.836;2023-02-28T20:49:27;97531.50;;;1.57;58.81
56142;BME280;42018;48.588;10.836;2023-02-28T20:52:13;97532.72;;;1.61;57.87
56142;BME280;42018;48.588;10.836;2023-02-28T20:54:58;97526.88;;;1.37;58.61
56142;BME280;42018;48.588;10.836;2023-02-28T20:57:43;97536.09;;;1.33;59.56
56142;BME280;42018;48.588;10.836;2023-02-28T21:00:29;97537.91;;;1.33;59.93
56142;BME280;42018;48.588;10.836;2023-02-28T21:03:15;97532.69;;;1.33;59.82
56142;BME280;42018;48.588;10.836;2023-02-28T21:06:01;97532.59;;;1.48;58.71
56142;BME280;42018;48.588;10.836;2023-02-28T21:08:46;97535.84;;;1.50;58.79
56142;BME280;42018;48.588;10.836;2023-02-28T21:11:32;97529.69;;;1.36;59.64